createdAt,value
2022-11-18T00:01:14.725Z,6.44
2022-11-18T00:03:42.616Z,6.43
2022-11-18T00:06:16.029Z,6.41
2022-11-18T00:08:43.156Z,6.33
2022-11-18T00:11:13.595Z,6.32
2022-11-18T00:13:59.365Z,6.30
2022-11-18T00:16:26.305Z,6.32
2022-11-18T00:18:53.225Z,6.30
2022-11-18T00:21:20.207Z,6.25
2022-11-18T00:23:49.164Z,6.24
2022-11-18T00:26:16.146Z,6.23
2022-11-18T00:28:43.145Z,6.25
2022-11-18T00:31:12.991Z,6.26
2022-11-18T00:33:40.632Z,6.28
2022-11-18T00:36:11.169Z,6.24
2022-11-18T00:38:38.924Z,6.20
2022-11-18T00:41:12.232Z,6.19
2022-11-18T00:43:39.986Z,6.18
2022-11-18T00:46:09.693Z,6.11
2022-11-18T00:48:37.354Z,6.09
2022-11-18T00:51:16.345Z,5.94
2022-11-18T00:53:43.723Z,5.91
2022-11-18T00:56:10.734Z,5.93
2022-11-18T00:58:38.003Z,5.95
2022-11-18T01:01:05.851Z,6.03
2022-11-18T01:03:33.514Z,6.07
2022-11-18T01:06:00.457Z,6.06
2022-11-18T01:08:27.543Z,6.11
2022-11-18T01:10:54.527Z,6.14
2022-11-18T01:13:23.333Z,6.20
2022-11-18T01:15:52.384Z,6.28
2022-11-18T01:18:23.446Z,6.30
2022-11-18T01:20:50.651Z,6.27
2022-11-18T01:23:19.283Z,6.30
2022-11-18T01:25:48.284Z,6.34
2022-11-18T01:28:23.023Z,6.37
2022-11-18T01:30:50.875Z,6.35
2022-11-18T01:33:17.985Z,6.37
2022-11-18T01:35:45.545Z,6.42
2022-11-18T01:38:14.684Z,6.46
2022-11-18T01:40:42.515Z,6.46
2022-11-18T01:43:18.604Z,6.47
2022-11-18T01:45:49.225Z,6.45
2022-11-18T01:48:34.224Z,6.44
2022-11-18T01:51:05.845Z,6.44
2022-11-18T01:53:37.924Z,6.37
2022-11-18T01:56:12.555Z,6.34
2022-11-18T01:58:46.803Z,6.29
2022-11-18T02:01:14.237Z,6.31
2022-11-18T02:03:43.832Z,6.27
2022-11-18T02:06:11.663Z,6.28
2022-11-18T02:08:39.704Z,6.32
2022-11-18T02:11:31.400Z,6.34
2022-11-18T02:14:00.884Z,6.36
2022-11-18T02:16:55.374Z,6.36
2022-11-18T02:19:47.499Z,6.23
2022-11-18T02:22:58.886Z,6.32
2022-11-18T02:25:53.146Z,6.24
2022-11-18T02:28:44.765Z,6.21
2022-11-18T02:31:20.155Z,6.18
2022-11-18T02:33:57.445Z,6.15
2022-11-18T02:36:42.413Z,6.05
2022-11-18T02:39:36.825Z,6.04
2022-11-18T02:42:09.744Z,6.07
2022-11-18T02:44:39.584Z,6.12
2022-11-18T02:47:11.205Z,6.10
2022-11-18T02:49:52.385Z,6.19
2022-11-18T02:52:21.624Z,6.24
2022-11-18T02:54:50.644Z,6.25
2022-11-18T02:57:19.765Z,6.32
2022-11-18T02:59:46.905Z,6.36
2022-11-18T03:02:18.232Z,6.39
2022-11-18T03:04:52.106Z,6.41
2022-11-18T03:07:28.144Z,6.43
2022-11-18T03:09:55.736Z,6.47
2022-11-18T03:12:41.496Z,6.48
2022-11-18T03:15:17.522Z,6.47
2022-11-18T03:17:58.739Z,6.49
2022-11-18T03:20:33.997Z,6.53
2022-11-18T03:23:22.717Z,6.56
2022-11-18T03:25:53.896Z,6.57
2022-11-18T03:28:45.176Z,6.58
2022-11-18T03:31:24.927Z,6.63
2022-11-18T03:34:06.837Z,6.64
2022-11-18T03:36:39.941Z,6.61
2022-11-18T03:39:10.896Z,6.64
2022-11-18T03:41:44.839Z,6.69
2022-11-18T03:44:16.538Z,6.69
2022-11-18T03:47:00.997Z,6.71
2022-11-18T03:49:42.718Z,6.73
2022-11-18T03:52:28.716Z,6.74
2022-11-18T03:54:59.719Z,6.73
2022-11-18T03:57:50.836Z,6.70
2022-11-18T04:00:20.485Z,6.75
2022-11-18T04:02:50.178Z,6.75
2022-11-18T04:05:19.657Z,6.72
2022-11-18T04:08:03.377Z,6.68
2022-11-18T04:11:02.377Z,6.71
2022-11-18T04:13:32.918Z,6.69
2022-11-18T04:16:00.878Z,6.61
2022-11-18T04:18:28.156Z,6.50
2022-11-18T04:20:55.197Z,6.45
2022-11-18T04:23:22.377Z,6.41
2022-11-18T04:25:49.299Z,6.29
2022-11-18T04:28:16.417Z,6.37
2022-11-18T04:30:43.518Z,6.40
2022-11-18T04:33:10.516Z,6.38
2022-11-18T04:35:37.537Z,6.40
2022-11-18T04:38:05.174Z,6.37
2022-11-18T04:40:32.279Z,6.33
2022-11-18T04:42:59.360Z,6.28
2022-11-18T04:45:26.417Z,6.25
2022-11-18T04:47:54.912Z,6.26
2022-11-18T04:50:23.620Z,6.28
2022-11-18T04:52:51.719Z,6.30
2022-11-18T04:55:20.824Z,6.25
2022-11-18T04:57:48.060Z,6.23
2022-11-18T05:00:15.486Z,6.17
2022-11-18T05:02:42.476Z,6.18
2022-11-18T05:05:09.776Z,6.18
2022-11-18T05:07:36.999Z,6.18
2022-11-18T05:10:04.219Z,6.34
2022-11-18T05:12:49.620Z,6.36
2022-11-18T05:15:24.070Z,6.41
2022-11-18T05:17:51.137Z,6.44
2022-11-18T05:20:18.255Z,6.47
2022-11-18T05:22:45.309Z,6.47
2022-11-18T05:25:12.355Z,6.47
2022-11-18T05:27:39.459Z,6.44
2022-11-18T05:30:07.019Z,6.38
2022-11-18T05:32:33.984Z,6.47
2022-11-18T05:35:00.974Z,6.49
2022-11-18T05:37:28.034Z,6.48
2022-11-18T05:39:55.082Z,6.45
2022-11-18T05:42:40.817Z,6.40
2022-11-18T05:45:08.125Z,6.31
2022-11-18T05:47:55.089Z,6.30
2022-11-18T05:50:22.197Z,6.29
2022-11-18T05:52:49.146Z,6.27
2022-11-18T05:55:18.224Z,6.29
2022-11-18T05:57:45.415Z,6.37
2022-11-18T06:00:13.135Z,6.36
2022-11-18T06:02:41.944Z,6.39
2022-11-18T06:05:10.477Z,6.34
2022-11-18T06:07:42.316Z,6.41
2022-11-18T06:10:18.242Z,6.32
2022-11-18T06:12:50.471Z,6.31
2022-11-18T06:15:31.324Z,6.31
2022-11-18T06:18:09.041Z,6.32
2022-11-18T06:20:38.347Z,6.31
2022-11-18T06:23:05.421Z,6.37
2022-11-18T06:25:33.401Z,6.35
2022-11-18T06:28:02.517Z,6.41
2022-11-18T06:30:29.512Z,6.39
2022-11-18T06:32:56.474Z,6.28
2022-11-18T06:35:23.483Z,6.31
2022-11-18T06:37:50.431Z,6.33
2022-11-18T06:40:17.762Z,6.38
2022-11-18T06:43:03.142Z,6.40
2022-11-18T06:45:30.552Z,6.40
2022-11-18T06:47:59.160Z,6.42
2022-11-18T06:50:26.309Z,6.46
2022-11-18T06:52:53.911Z,6.47
2022-11-18T06:55:20.960Z,6.53
2022-11-18T06:57:47.961Z,6.57
2022-11-18T07:00:15.830Z,6.59
2022-11-18T07:02:42.784Z,6.60
2022-11-18T07:05:09.981Z,6.58
2022-11-18T07:07:41.791Z,6.58
2022-11-18T07:10:09.816Z,6.62
2022-11-18T07:12:36.812Z,6.64
2022-11-18T07:15:04.020Z,6.67
2022-11-18T07:17:31.694Z,6.70
2022-11-18T07:19:58.762Z,6.65
2022-11-18T07:22:25.733Z,6.60
2022-11-18T07:24:52.741Z,6.62
2022-11-18T07:27:19.672Z,6.63
2022-11-18T07:29:46.661Z,6.67
2022-11-18T07:32:13.603Z,6.66
2022-11-18T07:34:40.650Z,6.66
2022-11-18T07:37:07.623Z,6.65
2022-11-18T07:39:34.669Z,6.66
2022-11-18T07:42:01.640Z,6.71
2022-11-18T07:44:28.641Z,6.75
2022-11-18T07:46:55.630Z,6.76
2022-11-18T07:49:22.724Z,6.76
2022-11-18T07:51:49.701Z,6.81
2022-11-18T07:54:19.792Z,6.86
2022-11-18T07:56:46.768Z,6.89
2022-11-18T07:59:13.864Z,6.89
2022-11-18T08:01:40.891Z,6.92
2022-11-18T08:04:12.780Z,6.91
2022-11-18T08:06:40.461Z,6.97
2022-11-18T08:09:08.109Z,6.96
2022-11-18T08:11:36.335Z,7.01
2022-11-18T08:14:03.420Z,7.07
2022-11-18T08:16:30.525Z,7.11
2022-11-18T08:18:58.980Z,7.12
2022-11-18T08:21:25.901Z,7.11
2022-11-18T08:23:55.874Z,7.14
2022-11-18T08:26:22.994Z,7.19
2022-11-18T08:28:50.280Z,7.23
2022-11-18T08:31:25.568Z,7.27
2022-11-18T08:34:05.152Z,7.25
2022-11-18T08:36:37.175Z,7.25
2022-11-18T08:39:07.332Z,7.26
2022-11-18T08:41:37.040Z,7.30
2022-11-18T08:44:05.699Z,7.33
2022-11-18T08:46:32.941Z,7.36
2022-11-18T08:49:00.431Z,7.38
2022-11-18T08:51:29.950Z,7.42
2022-11-18T08:53:57.250Z,7.48
2022-11-18T08:56:25.466Z,7.48
2022-11-18T08:58:52.992Z,7.51
2022-11-18T09:01:20.165Z,7.52
2022-11-18T09:03:48.519Z,7.54
2022-11-18T09:06:19.230Z,7.57
2022-11-18T09:08:46.791Z,7.55
2022-11-18T09:11:19.870Z,7.60
2022-11-18T09:16:35.744Z,7.56
2022-11-18T09:19:24.345Z,7.49
2022-11-18T09:21:50.902Z,7.57
2022-11-18T09:24:18.175Z,7.59
2022-11-18T09:26:45.572Z,7.60
2022-11-18T09:29:12.502Z,7.65
2022-11-18T09:31:39.529Z,7.66
2022-11-18T09:34:06.611Z,7.72
2022-11-18T09:36:33.723Z,7.78
2022-11-18T09:39:00.780Z,7.82
2022-11-18T09:41:48.479Z,7.82
2022-11-18T09:44:36.721Z,7.88
2022-11-18T09:47:27.920Z,7.92
2022-11-18T09:50:34.044Z,7.93
2022-11-18T09:53:18.383Z,8.00
2022-11-18T09:55:46.070Z,8.00
2022-11-18T09:58:21.551Z,7.98
2022-11-18T10:00:48.731Z,7.97
2022-11-18T10:03:30.011Z,7.98
2022-11-18T10:06:23.141Z,7.98
2022-11-18T10:09:34.660Z,7.99
2022-11-18T10:12:23.361Z,7.94
2022-11-18T10:15:08.970Z,7.95
2022-11-18T10:18:07.891Z,7.94
2022-11-18T10:20:56.451Z,7.97
2022-11-18T10:23:29.983Z,7.96
2022-11-18T10:25:56.976Z,8.02
2022-11-18T10:28:26.112Z,8.01
2022-11-18T10:30:53.359Z,8.05
2022-11-18T10:33:22.986Z,8.06
2022-11-18T10:35:50.521Z,8.13
2022-11-18T10:38:17.483Z,8.09
2022-11-18T10:40:59.657Z,8.19
2022-11-18T10:43:49.060Z,8.20
2022-11-18T10:46:39.440Z,8.29
2022-11-18T10:49:09.415Z,8.30
2022-11-18T10:51:42.332Z,8.33
2022-11-18T10:54:09.382Z,8.37
2022-11-18T10:56:47.002Z,8.37
2022-11-18T10:59:30.770Z,8.42
2022-11-18T11:02:18.296Z,8.39
2022-11-18T11:04:47.460Z,8.41
2022-11-18T11:07:28.067Z,8.42
2022-11-18T11:10:07.164Z,8.43
2022-11-18T11:12:48.440Z,8.41
2022-11-18T11:15:38.531Z,8.43
2022-11-18T11:18:44.161Z,8.39
2022-11-18T11:21:23.059Z,8.39
2022-11-18T11:23:50.100Z,8.41
2022-11-18T11:29:39.168Z,8.45
2022-11-18T11:32:18.211Z,8.50
2022-11-18T11:34:57.290Z,8.54
2022-11-18T11:37:52.210Z,8.53
2022-11-18T11:40:39.643Z,8.62
2022-11-18T11:43:32.972Z,8.62
2022-11-18T11:46:27.354Z,8.67
2022-11-18T11:49:17.183Z,8.65
2022-11-18T11:51:54.822Z,8.61
2022-11-18T11:54:40.781Z,8.58
2022-11-18T11:57:16.643Z,8.61
2022-11-18T11:59:50.319Z,8.62
2022-11-18T12:13:40.091Z,7.94
2022-11-18T12:16:21.126Z,7.92
2022-11-18T12:18:51.526Z,7.98
2022-11-18T12:21:46.522Z,8.12
2022-11-18T12:24:34.403Z,8.13
2022-11-18T12:27:24.501Z,8.32
2022-11-18T12:29:56.100Z,8.43
2022-11-18T12:32:43.782Z,8.59
2022-11-18T12:35:13.755Z,8.70
2022-11-18T12:37:53.088Z,8.73
2022-11-18T12:40:38.260Z,8.80
2022-11-18T12:43:30.551Z,8.80
2022-11-18T12:45:58.602Z,8.80
2022-11-18T12:48:31.892Z,8.86
2022-11-18T12:51:01.220Z,8.90
2022-11-18T12:53:41.919Z,8.95
2022-11-18T12:56:18.020Z,8.99
2022-11-18T12:58:56.751Z,9.04
2022-11-18T13:01:29.701Z,9.08
2022-11-18T13:04:13.513Z,9.11
2022-11-18T13:06:42.200Z,9.14
2022-11-18T13:09:23.439Z,9.09
2022-11-18T13:12:05.844Z,9.07
2022-11-18T13:14:52.801Z,9.07
2022-11-18T13:17:51.522Z,9.09
2022-11-18T13:20:38.086Z,9.10
2022-11-18T13:23:49.630Z,9.11
2022-11-18T13:26:31.963Z,9.15
2022-11-18T13:29:17.440Z,9.17
2022-11-18T13:32:22.220Z,9.22
2022-11-18T13:34:54.631Z,9.21
2022-11-18T13:37:27.828Z,9.19
2022-11-18T13:39:55.430Z,9.26
2022-11-18T13:42:26.175Z,9.23
2022-11-18T13:45:03.594Z,9.19
2022-11-18T13:47:36.721Z,9.27
2022-11-18T13:50:21.083Z,9.24
2022-11-18T13:53:04.650Z,9.19
2022-11-18T13:55:39.941Z,9.21
2022-11-18T13:58:19.024Z,9.20
2022-11-18T14:01:04.468Z,9.13
2022-11-18T14:03:40.070Z,9.13
2022-11-18T14:06:07.824Z,9.09
2022-11-18T14:08:37.532Z,9.14
2022-11-18T14:11:06.791Z,9.14
2022-11-18T14:13:37.326Z,9.12
2022-11-18T14:16:24.284Z,9.11
2022-11-18T14:18:52.150Z,9.10
2022-11-18T14:21:38.519Z,9.12
2022-11-18T14:24:06.169Z,9.10
2022-11-18T14:26:35.893Z,9.09
2022-11-18T14:29:21.529Z,9.05
2022-11-18T14:32:15.065Z,9.02
2022-11-18T14:34:42.232Z,9.02
2022-11-18T14:37:13.943Z,8.98
2022-11-18T14:39:41.610Z,8.99
2022-11-18T14:42:11.660Z,8.95
2022-11-18T14:44:38.586Z,8.95
2022-11-18T14:47:16.842Z,8.85
2022-11-18T14:49:43.805Z,8.93
2022-11-18T14:52:10.936Z,8.92
2022-11-18T14:54:37.951Z,8.92
2022-11-18T14:57:06.062Z,8.92
2022-11-18T14:59:33.252Z,8.91
2022-11-18T15:02:00.298Z,8.88
2022-11-18T15:04:27.381Z,8.91
2022-11-18T15:06:54.507Z,8.87
2022-11-18T15:09:21.640Z,8.82
2022-11-18T15:11:48.573Z,8.86
2022-11-18T15:14:15.842Z,8.82
2022-11-18T15:16:43.031Z,8.76
2022-11-18T15:19:14.236Z,8.69
2022-11-18T15:21:41.230Z,8.68
2022-11-18T15:24:08.169Z,8.67
2022-11-18T15:26:40.119Z,8.65
2022-11-18T15:29:07.846Z,8.51
2022-11-18T15:31:34.811Z,8.52
2022-11-18T15:34:06.562Z,8.55
2022-11-18T15:36:46.537Z,8.55
2022-11-18T15:39:13.601Z,8.51
2022-11-18T15:41:42.390Z,8.52
2022-11-18T15:44:12.514Z,8.52
2022-11-18T15:46:40.108Z,8.50
2022-11-18T15:49:09.842Z,8.53
2022-11-18T15:51:37.160Z,8.51
2022-11-18T15:54:04.239Z,8.47
2022-11-18T15:56:33.013Z,8.51
2022-11-18T15:59:04.838Z,8.51
2022-11-18T16:01:36.995Z,8.50
2022-11-18T16:04:06.019Z,8.50
2022-11-18T16:06:33.212Z,8.50
2022-11-18T16:09:00.867Z,8.51
2022-11-18T16:11:47.979Z,8.50
2022-11-18T16:14:18.018Z,8.50
2022-11-18T16:16:47.560Z,8.50
2022-11-18T16:19:17.430Z,8.48
2022-11-18T16:21:47.458Z,8.50
2022-11-18T16:24:17.646Z,8.50
2022-11-18T16:26:44.940Z,8.51
2022-11-18T16:29:13.372Z,8.52
2022-11-18T16:31:40.638Z,8.50
2022-11-18T16:34:22.404Z,8.47
2022-11-18T16:36:52.327Z,8.50
2022-11-18T16:39:24.296Z,8.47
2022-11-18T16:41:52.889Z,8.50
2022-11-18T16:44:20.009Z,8.49
2022-11-18T16:46:49.367Z,8.47
2022-11-18T16:49:18.345Z,8.49
2022-11-18T16:51:50.179Z,8.49
2022-11-18T16:54:18.459Z,8.50
2022-11-18T16:56:45.816Z,8.49
2022-11-18T16:59:18.851Z,8.48
2022-11-18T17:01:46.220Z,8.48
2022-11-18T17:04:13.848Z,8.46
2022-11-18T17:06:41.680Z,8.47
2022-11-18T17:09:14.399Z,8.48
2022-11-18T17:11:41.859Z,8.49
2022-11-18T17:14:09.079Z,8.51
2022-11-18T17:16:36.262Z,8.51
2022-11-18T17:19:10.109Z,8.53
2022-11-18T17:21:38.661Z,8.54
2022-11-18T17:24:06.762Z,8.56
2022-11-18T17:26:34.260Z,8.54
2022-11-18T17:29:01.598Z,8.55
2022-11-18T17:31:29.739Z,8.55
2022-11-18T17:33:56.721Z,8.60
2022-11-18T17:36:26.782Z,8.57
2022-11-18T17:38:55.828Z,8.56
2022-11-18T17:41:43.866Z,8.58
2022-11-18T17:44:12.072Z,8.56
2022-11-18T17:46:39.739Z,8.56
2022-11-18T17:49:13.321Z,8.57
2022-11-18T17:51:41.085Z,8.58
2022-11-18T17:54:08.982Z,8.55
2022-11-18T17:56:35.999Z,8.58
2022-11-18T17:59:03.211Z,8.58
2022-11-18T18:01:30.316Z,8.61
2022-11-18T18:03:57.580Z,8.60
2022-11-18T18:06:24.679Z,8.61
2022-11-18T18:08:56.329Z,8.62
2022-11-18T18:11:23.908Z,8.60
2022-11-18T18:14:09.599Z,8.59
2022-11-18T18:16:36.939Z,8.59
2022-11-18T18:19:06.190Z,8.57
2022-11-18T18:21:34.410Z,8.59
2022-11-18T18:24:01.540Z,8.60
2022-11-18T18:26:31.744Z,8.61
2022-11-18T18:29:02.564Z,8.61
2022-11-18T18:31:32.702Z,8.61
2022-11-18T18:33:59.739Z,8.61
2022-11-18T18:36:26.881Z,8.61
2022-11-18T18:38:55.202Z,8.62
2022-11-18T18:41:23.382Z,8.62
2022-11-18T18:43:50.976Z,8.63
2022-11-18T18:46:30.349Z,8.62
2022-11-18T18:49:05.699Z,8.63
2022-11-18T18:51:42.668Z,8.62
2022-11-18T18:54:12.738Z,8.63
2022-11-18T18:56:40.399Z,8.61
2022-11-18T18:59:08.018Z,8.60
2022-11-18T19:01:35.467Z,8.63
2022-11-18T19:04:05.342Z,8.62
2022-11-18T19:06:58.365Z,8.61
2022-11-18T19:09:23.885Z,8.58
2022-11-18T19:12:09.919Z,8.63
2022-11-18T19:14:37.100Z,8.58
2022-11-18T19:17:10.113Z,8.56
2022-11-18T19:19:58.744Z,8.54
2022-11-18T19:22:26.188Z,8.52
2022-11-18T19:24:54.026Z,8.52
2022-11-18T19:27:21.927Z,8.52
2022-11-18T19:29:49.326Z,8.49
2022-11-18T19:32:16.289Z,8.51
2022-11-18T19:34:43.350Z,8.49
2022-11-18T19:37:10.362Z,8.47
2022-11-18T19:39:38.697Z,8.46
2022-11-18T19:42:05.895Z,8.46
2022-11-18T19:44:32.854Z,8.44
2022-11-18T19:46:59.812Z,8.43
2022-11-18T19:49:26.809Z,8.43
2022-11-18T19:51:53.758Z,8.46
2022-11-18T19:54:20.979Z,8.46
2022-11-18T19:56:47.974Z,8.46
2022-11-18T19:59:14.911Z,8.46
2022-11-18T20:01:43.462Z,8.48
2022-11-18T20:04:10.835Z,8.42
2022-11-18T20:06:38.187Z,8.47
2022-11-18T20:09:09.397Z,8.44
2022-11-18T20:11:36.828Z,8.47
2022-11-18T20:14:03.979Z,8.44
2022-11-18T20:16:31.376Z,8.48
2022-11-18T20:19:02.872Z,8.45
2022-11-18T20:21:34.226Z,8.47
2022-11-18T20:24:03.290Z,8.47
2022-11-18T20:26:40.049Z,8.48
2022-11-18T20:29:08.219Z,8.49
2022-11-18T20:31:36.320Z,8.48
2022-11-18T20:34:04.513Z,8.49
2022-11-18T20:36:34.668Z,8.49
2022-11-18T20:39:22.035Z,8.48
2022-11-18T20:42:07.796Z,8.44
2022-11-18T20:44:34.788Z,8.43
2022-11-18T20:47:01.728Z,8.43
2022-11-18T20:49:28.766Z,8.38
2022-11-18T20:51:55.650Z,8.36
2022-11-18T20:54:22.586Z,8.39
2022-11-18T20:56:49.531Z,8.32
2022-11-18T20:59:16.748Z,8.26
2022-11-18T21:01:43.871Z,8.23
2022-11-18T21:04:12.239Z,8.19
2022-11-18T21:06:39.248Z,8.14
2022-11-18T21:09:06.875Z,8.03
2022-11-18T21:11:35.667Z,8.04
2022-11-18T21:14:23.535Z,8.04
2022-11-18T21:16:53.707Z,7.99
2022-11-18T21:19:21.491Z,7.98
2022-11-18T21:21:49.324Z,7.98
2022-11-18T21:24:33.451Z,7.96
2022-11-18T21:27:02.596Z,7.94
2022-11-18T21:29:31.896Z,7.93
2022-11-18T21:32:02.782Z,7.95
2022-11-18T21:34:30.098Z,7.96
2022-11-18T21:36:57.118Z,7.96
2022-11-18T21:39:25.026Z,7.99
2022-11-18T21:41:56.231Z,8.00
2022-11-18T21:44:24.358Z,7.99
2022-11-18T21:46:51.379Z,7.98
2022-11-18T21:49:18.618Z,8.00
2022-11-18T21:51:45.798Z,8.03
2022-11-18T21:54:13.221Z,8.01
2022-11-18T21:56:40.141Z,8.02
2022-11-18T21:59:07.917Z,8.03
2022-11-18T22:01:35.252Z,8.01
2022-11-18T22:04:04.161Z,8.01
2022-11-18T22:06:33.996Z,8.00
2022-11-18T22:09:02.940Z,7.99
2022-11-18T22:11:30.091Z,7.96
2022-11-18T22:13:58.092Z,7.95
2022-11-18T22:16:27.415Z,7.96
2022-11-18T22:19:01.482Z,7.92
2022-11-18T22:21:30.892Z,7.94
2022-11-18T22:23:59.904Z,7.91
2022-11-18T22:26:27.742Z,7.91
2022-11-18T22:28:57.028Z,7.89
2022-11-18T22:31:25.750Z,7.90
2022-11-18T22:33:53.961Z,7.87
2022-11-18T22:36:22.209Z,7.87
2022-11-18T22:38:49.502Z,7.85
2022-11-18T22:41:36.530Z,7.83
2022-11-18T22:44:07.679Z,7.76
2022-11-18T22:46:39.743Z,7.73
2022-11-18T22:49:07.966Z,7.69
2022-11-18T22:51:35.923Z,7.67
2022-11-18T22:56:50.688Z,7.63
2022-11-18T22:59:17.890Z,7.61
2022-11-18T23:01:45.008Z,7.59
2022-11-18T23:04:11.906Z,7.57
2022-11-18T23:06:38.940Z,7.52
2022-11-18T23:09:05.860Z,7.53
2022-11-18T23:11:51.553Z,7.51
2022-11-18T23:14:18.519Z,7.41
2022-11-18T23:16:45.517Z,7.40
2022-11-18T23:19:14.714Z,7.39
2022-11-18T23:21:42.362Z,7.41
2022-11-18T23:24:18.489Z,7.40
2022-11-18T23:26:46.063Z,7.43
2022-11-18T23:29:14.607Z,7.43
2022-11-18T23:31:43.884Z,7.47
2022-11-18T23:34:12.809Z,7.45
2022-11-18T23:36:40.240Z,7.45
2022-11-18T23:39:07.794Z,7.46
2022-11-18T23:41:35.470Z,7.45
2022-11-18T23:44:02.790Z,7.48
2022-11-18T23:46:30.103Z,7.44
2022-11-18T23:48:57.043Z,7.46
2022-11-18T23:51:25.783Z,7.42
2022-11-18T23:53:55.107Z,7.42
2022-11-18T23:56:24.761Z,7.39
2022-11-18T23:58:53.919Z,7.40
